D/T METAR WX W/DIR W/SPE G/SPE TEMP DEWP
23/05/19 13:20 EGGP 231220Z 27005KT 180V350 CAVOK 18/08 Q1016 W (270°) 5.8mph 18°C 8°C
23/05/19 12:50 EGGP 231150Z 23005KT 170V280 9999 FEW048 17/07 Q1016 SW (230°) 5.8mph 17°C 7°C
23/05/19 12:20 EGGP 231120Z 26005KT 220V310 CAVOK 17/08 Q1016 W (260°) 5.8mph 17°C 8°C
23/05/19 11:50 EGGP 231050Z VRB02KT CAVOK 17/08 Q1016 N (0°) 2.3mph 17°C 8°C
23/05/19 10:50 EGGP 230950Z VRB02KT CAVOK 16/06 Q1016 N (0°) 2.3mph 16°C 6°C
23/05/19 10:20 EGGP 230920Z VRB02KT CAVOK 15/07 Q1016 N (0°) 2.3mph 15°C 7°C
23/05/19 09:50 EGGP 230850Z VRB03KT CAVOK 14/07 Q1016 N (0°) 3.5mph 14°C 7°C
23/05/19 09:20 EGGP 230820Z VRB02KT CAVOK 13/07 Q1017 N (0°) 2.3mph 13°C 7°C
23/05/19 08:50 EGGP 230750Z VRB03KT CAVOK 12/07 Q1017 N (0°) 3.5mph 12°C 7°C
23/05/19 08:20 EGGP 230720Z VRB02KT CAVOK 12/07 Q1017 N (0°) 2.3mph 12°C 7°C
23/05/19 07:50 EGGP 230650Z VRB02KT CAVOK 11/08 Q1017 N (0°) 2.3mph 11°C 8°C
23/05/19 07:20 EGGP 230620Z 13002KT CAVOK 10/08 Q1017 SE (130°) 2.3mph 10°C 8°C
23/05/19 06:50 EGGP 230550Z 16003KT CAVOK 09/07 Q1017 SSE (160°) 3.5mph 9°C 7°C
23/05/19 06:20 EGGP 230520Z 16004KT CAVOK 10/08 Q1016 SSE (160°) 4.6mph 10°C 8°C
23/05/19 05:50 EGGP 230450Z 19004KT CAVOK 10/08 Q1016 S (190°) 4.6mph 10°C 8°C
23/05/19 05:20 EGGP 230420Z 20004KT CAVOK 09/08 Q1016 SSW (200°) 4.6mph 9°C 8°C
23/05/19 04:50 EGGP 230350Z 19003KT CAVOK 09/08 Q1016 S (190°) 3.5mph 9°C 8°C
23/05/19 04:20 EGGP 230320Z 13002KT CAVOK 09/08 Q1016 SE (130°) 2.3mph 9°C 8°C
23/05/19 03:50 EGGP 230250Z VRB03KT CAVOK 10/09 Q1016 N (0°) 3.5mph 10°C 9°C
23/05/19 03:20 EGGP 230220Z 15003KT CAVOK 10/08 Q1017 SSE (150°) 3.5mph 10°C 8°C
23/05/19 02:50 EGGP 230150Z VRB01KT CAVOK 10/08 Q1017 N (0°) 1.2mph 10°C 8°C
23/05/19 02:20 EGGP 230120Z 00000KT CAVOK 10/07 Q1017 N (0°) 10°C 7°C
23/05/19 01:50 EGGP 230050Z VRB02KT CAVOK 11/08 Q1017 N (0°) 2.3mph 11°C 8°C
23/05/19 01:20 EGGP 230020Z 30003KT CAVOK 11/09 Q1017 WNW (300°) 3.5mph 11°C 9°C
23/05/19 00:50 EGGP 222350Z 29004KT CAVOK 11/08 Q1017 WNW (290°) 4.6mph 11°C 8°C
23/05/19 00:20 EGGP 222320Z 30004KT CAVOK 11/08 Q1017 WNW (300°) 4.6mph 11°C 8°C
22/05/19 23:50 EGGP 222250Z 28005KT CAVOK 11/08 Q1017 W (280°) 5.8mph 11°C 8°C
22/05/19 23:20 EGGP 222220Z 31004KT CAVOK 12/08 Q1018 NW (310°) 4.6mph 12°C 8°C
22/05/19 22:50 EGGP 222150Z 32004KT CAVOK 12/08 Q1018 NW (320°) 4.6mph 12°C 8°C
22/05/19 22:20 EGGP 222120Z 30006KT CAVOK 12/09 Q1018 WNW (300°) 6.9mph 12°C 9°C
22/05/19 21:50 EGGP 222050Z 30006KT CAVOK 12/08 Q1018 WNW (300°) 6.9mph 12°C 8°C
22/05/19 20:50 EGGP 221950Z 30007KT CAVOK 13/09 Q1018 WNW (300°) 8.1mph 13°C 9°C
22/05/19 20:20 EGGP 221920Z 29009KT CAVOK 13/08 Q1018 WNW (290°) 10.4mph 13°C 8°C
22/05/19 19:50 EGGP 221850Z 31010KT CAVOK 14/08 Q1018 NW (310°) 11.5mph 14°C 8°C
22/05/19 19:20 EGGP 221820Z 31010KT 280V350 CAVOK 14/08 Q1018 NW (310°) 11.5mph 14°C 8°C
22/05/19 18:50 EGGP 221750Z 31009KT 280V340 CAVOK 15/10 Q1018 NW (310°) 10.4mph 15°C 10°C
22/05/19 17:50 EGGP 221650Z 31010KT 9999 FEW040 15/09 Q1018 NW (310°) 11.5mph 15°C 9°C
22/05/19 17:20 EGGP 221620Z 32012KT 9999 FEW047 15/09 Q1018 NW (320°) 13.8mph 15°C 9°C
22/05/19 16:20 EGGP 221520Z 29011KT 9999 FEW046 15/09 Q1018 WNW (290°) 12.7mph 15°C 9°C
22/05/19 15:50 EGGP 221450Z 30011KT 9999 FEW035 16/09 Q1018 WNW (300°) 12.7mph 16°C 9°C
22/05/19 15:20 EGGP 221420Z 30011KT 9999 SCT048 16/10 Q1018 WNW (300°) 12.7mph 16°C 10°C
22/05/19 14:50 EGGP 221350Z 30009KT 9999 FEW040 16/10 Q1018 WNW (300°) 10.4mph 16°C 10°C
22/05/19 14:20 EGGP 221320Z 30008KT 260V330 9999 SCT040 16/09 Q1018 WNW (300°) 9.2mph 16°C 9°C
22/05/19 13:50 EGGP 221250Z 30008KT 240V330 9999 SCT042 16/09 Q1018 WNW (300°) 9.2mph 16°C 9°C
22/05/19 13:20 EGGP 221220Z 30007KT 250V340 9999 SCT035 BKN040 17/10 Q1018 WNW (300°) 8.1mph 17°C 10°C
22/05/19 12:50 EGGP 221150Z 29008KT 270V340 9999 SCT035 16/09 Q1018 WNW (290°) 9.2mph 16°C 9°C
22/05/19 12:20 EGGP 221120Z 28008KT 9999 SCT032 BKN039 15/09 Q1019 W (280°) 9.2mph 15°C 9°C
22/05/19 11:50 EGGP 221050Z 23005KT 9999 SCT032 15/09 Q1019 SW (230°) 5.8mph 15°C 9°C